x

West Gulf - 207 Nm East Of Brownsville, Tx (42002) Wave Buoy

7:50am - Mon 24th Jul 2017 All times are CDT. -5 hours from GMT.

  • Sig Wave height 3.3ft
  • Swell Direction
  • Peak Period 6s
  • Average Period 5s
  • Wind
    11mph, 13mph gusts
  • Sea Temp 87°f
  • Air Temp 85°f
  • Sea Pressure 1016.3mb
  • West Gulf - 207 Nm East Of Brownsville, Tx
  • West Gulf - 207 Nm East Of Brownsville, Tx

More Historic Weather Station data

Upgrade to MSW Pro to gain access to the past 30 days of data for over 8000 Wavebouys and Weather Stations around the globe.

Join Pro

Comparision Forecast

View Surf forecast
   
Mon 07/24 7:50am 3.5ft 6s 5s 11 13 mph 1016.3mb 87f 85f
6:50am 3.5ft 6s 5s 13 16 mph 1015.8mb 87f 85f
5:50am 3.5ft 5s 5s 13 18 mph 1015.2mb 87f 85f
4:50am 3ft 5s 4s 16 18 mph 1015mb 87f 85f
3:50am 3ft 6s 4s 13 16 mph 1014.8mb 87f 85f
2:50am 2.5ft 6s 4s 13 16 mph 1014.9mb 87f 85f
1:50am 2.5ft 6s 4s 13 16 mph 1015.5mb 87f 85f
12:50am 2.5ft 5s 4s 16 18 mph 1015.6mb 87f 86f
Sun 07/23 11:50pm 2.5ft 5s 4s 13 16 mph 1015.4mb 87f 86f
10:50pm 2.5ft 5s 4s 13 16 mph 1015.5mb 87f 86f
9:50pm 2.5ft 5s 5s 11 13 mph 1015mb 87f 86f
8:50pm 2.5ft 5s 4s 11 13 mph 1014.4mb 87f 86f
7:50pm 2.5ft 5s 5s 11 13 mph 1014.2mb 87f 86f
6:50pm 2.5ft 5s 4s 11 13 mph 1013.9mb 87f 86f
5:50pm 2.5ft 5s 4s 11 13 mph 1014mb 87f 86f
4:50pm 2.5ft 5s 4s 11 13 mph 1014.5mb 87f 86f
3:50pm 2.5ft 5s 4s 11 13 mph 1015mb 87f 86f
2:50pm 2.5ft 5s 4s 11 13 mph 1015.6mb 87f 86f
1:50pm 2.5ft 5s 4s 11 13 mph 1016mb 87f 86f
12:50pm 2.5ft 5s 4s 13 16 mph 1016.2mb 87f 85f
11:50am 2.5ft 5s 4s 11 16 mph 1016.2mb 87f 85f
10:50am 2.5ft 5s 4s 13 16 mph 1015.9mb 87f 85f
9:50am 2.5ft 5s 4s 11 16 mph 1015.8mb 87f 86f
8:50am 2.5ft 5s 4s 11 13 mph 1015.6mb 87f 85f
7:50am 2.5ft 5s 4s 11 13 mph 1015.2mb 87f 85f
6:50am 2.5ft 5s 4s 13 16 mph 1014.8mb 87f 85f
5:50am 2.5ft 5s 4s 11 13 mph 1014.6mb 87f 85f
4:50am 2.5ft 4s 4s 13 18 mph 1014.2mb 88f 85f
3:50am 2.5ft 4s 4s 13 16 mph 1014.2mb 88f 85f
2:50am 2.5ft 4s 4s 13 18 mph 1014.6mb 87f 85f
1:50am 2.5ft 4s 4s 16 18 mph 1015.2mb 87f 85f
12:50am 2.5ft 4s 4s 13 18 mph 1015.7mb 88f 86f
Sat 07/22 11:50pm 2ft 4s 4s 16 18 mph 1015.9mb 88f 86f
10:50pm 2ft 4s 4s 13 16 mph 1015.8mb 88f 86f
9:50pm 2ft 4s 4s 9 11 mph 1015.5mb 88f 86f
8:50pm 2ft 4s 4s 13 16 mph 1014.7mb 88f 86f
7:50pm 1.6ft 4s 4s 11 11 mph 1014.9mb 87f 86f
6:50pm 2ft 4s 4s 11 13 mph 1014.5mb 87f 86f
5:50pm 1.6ft 4s 4s 11 13 mph 1014.7mb 88f 86f
4:50pm 1.6ft 4s 4s 11 16 mph 1014.9mb 88f 86f
3:50pm 1.6ft 4s 4s 9 13 mph 1015.5mb 87f 86f
2:50pm 1.6ft 4s 4s 11 13 mph 1016mb 87f 86f
1:50pm 1.6ft 4s 4s 11 13 mph 1016.4mb 87f 86f
12:50pm 1.3ft 4s 4s 13 16 mph 1016.9mb 87f 85f
11:50am 1.3ft 9s 4s 13 16 mph 1016.7mb 87f 86f
10:50am 1.3ft 4s 4s 9 11 mph 1017mb 87f 86f
9:50am 1.3ft 4s 4s 11 13 mph 1016.6mb 87f 86f
8:50am 1.3ft 4s 4s 9 9 mph 1016.3mb 87f 85f
7:50am 1.3ft 9s 4s 9 11 mph 1016mb 88f 86f
6:50am 1.3ft 4s 4s 9 11 mph 1015.7mb 88f 85f
5:50am 1.3ft 3s 4s 7 9 mph 1015.3mb 88f 85f
4:50am 1.3ft 3s 3s 9 11 mph 1014.6mb 88f 85f
3:50am 1.3ft 3s 3s 13 13 mph 1014.5mb 88f 85f
2:50am 1.3ft 9s 3s 13 16 mph 1015mb 88f 85f
1:50am 1ft 8s 4s 11 13 mph 1015.6mb 88f 85f
12:50am 1ft 4s 4s 11 13 mph 1016.1mb 88f 86f
Fri 07/21 11:50pm 1ft 4s 4s 7 9 mph 1016.5mb 88f 86f
10:50pm 1ft 4s 4s 7 9 mph 1016.1mb 88f 86f
9:50pm 1ft 5s 4s 7 9 mph 1015.4mb 88f 85f
8:50pm 1ft 4s 4s 4 7 mph 1015.3mb 88f 85f
7:50pm 1ft 4s 4s 4 7 mph 1015.1mb 89f 86f
6:50pm 1ft 5s 4s 2 4 mph 1015.5mb 89f 87f
5:50pm 1ft 5s 4s 2 4 mph 1015.6mb 88f 86f
4:50pm 1ft 5s 4s 4 7 mph 1016mb 89f 86f
3:50pm 1ft 5s 5s 4 7 mph 1016.7mb 89f 87f
2:50pm 1ft 5s 5s 4 7 mph 1017.2mb 89f 86f
1:50pm 1ft 5s 5s 2 4 mph 1017.7mb 90f 87f
12:50pm 1ft 5s 5s 2 4 mph 1018mb 90f 86f
11:50am 1ft 6s 4s  -  2 mph 1018.1mb 90f 87f
10:50am 0.7ft  -  4s  -  2 mph 1018mb 89f 87f
9:50am 1ft 5s 4s  -  2 mph 1018mb 87f 87f
8:50am 1ft 5s 4s 2 2 mph 1017.9mb 87f 88f
7:50am 1ft 5s 4s 2 4 mph 1017.1mb 87f 86f
6:50am 1ft 5s 4s 4 7 mph 1016.5mb 87f 84f
5:50am 1.3ft 5s 4s 4 7 mph 1015.9mb 87f 85f
4:50am 1.3ft 5s 4s 4 7 mph 1015.7mb 87f 85f
3:50am 1.3ft 4s 4s 7 9 mph 1015.7mb 87f 85f
2:50am 1.3ft 4s 4s 7 9 mph 1016.1mb 87f 85f
1:50am 1.3ft 5s 4s 9 11 mph 1016.8mb 87f 85f
12:50am 1.3ft 4s 4s 9 13 mph 1017.3mb 88f 85f
Thu 07/20 11:50pm 1.3ft 5s 4s 11 13 mph 1017.7mb 88f 85f
10:50pm 1.3ft 5s 4s 9 11 mph 1017.7mb 88f 86f
9:50pm 1.3ft 5s 4s 7 9 mph 1017.5mb 89f 86f
8:50pm 1.3ft 5s 4s 2 4 mph 1017.1mb 89f 85f
7:50pm 1.3ft 5s 4s 2 2 mph 1017.1mb 89f 86f
6:50pm 1.3ft 5s 5s 4 9 mph 1017.3mb 89f 85f
5:50pm 1.3ft 5s 5s 4 7 mph 1017.9mb 89f 87f
4:50pm 1.3ft 6s 5s 4 7 mph 1018.2mb 90f 87f
3:50pm 1.3ft 6s 5s 2 4 mph 1018.5mb 90f 87f
2:50pm 1.3ft 6s 5s 4 7 mph 1019.1mb 90f 86f